Time;durP1;ratioP1;P1;durP2;ratioP2;P2;SDS_P1;SDS_P2;PMS_P1;PMS_P2;Temp;Humidity;BMP_temperature;BMP_pressure;BME280_temperature;BME280_humidity;BME280_pressure;Samples;Min_cycle;Max_cycle;Signal;HPM_P1;HPM_P2
2023/02/27 00:00:41;;;;;;;10.30;5.10;;;;;;;0.42;69.02;100593.34;103151;1253;108454;-68
2023/02/27 00:03:25;;;;;;;11.60;5.70;;;;;;;0.40;69.29;100592.47;103121;1257;137960;-68
2023/02/27 00:06:13;;;;;;;14.60;5.80;;;;;;;0.38;69.47;100599.29;103287;1254;107960;-67
2023/02/27 00:09:00;;;;;;;10.80;5.40;;;;;;;0.36;69.64;100601.11;102402;1257;1003387;-68
2023/02/27 00:11:48;;;;;;;13.50;5.80;;;;;;;0.33;69.91;100600.89;103203;1255;109914;-68
2023/02/27 00:14:24;;;;;;;12.80;5.90;;;;;;;0.31;70.12;100601.73;103226;1257;107520;-68
2023/02/27 00:17:12;;;;;;;10.30;5.60;;;;;;;0.29;70.30;100611.63;102768;1262;96822;-68
2023/02/27 00:19:59;;;;;;;12.30;5.60;;;;;;;0.27;70.56;100609.04;102732;1261;109343;-68
2023/02/27 00:22:47;;;;;;;11.40;5.70;;;;;;;0.26;70.69;100615.00;102586;1263;137853;-69
2023/02/27 00:25:35;;;;;;;11.20;5.90;;;;;;;0.24;70.88;100617.02;102707;1260;110079;-68
2023/02/27 00:28:23;;;;;;;11.80;5.70;;;;;;;0.21;70.99;100621.61;102557;1260;138026;-68
2023/02/27 00:31:00;;;;;;;12.60;5.80;;;;;;;0.20;71.17;100621.24;102840;1263;96759;-67
2023/02/27 00:33:30;;;;;;;14.10;6.30;;;;;;;0.19;71.48;100619.53;101095;1260;1003548;-67
2023/02/27 00:36:11;;;;;;;9.90;5.70;;;;;;;0.19;71.61;100619.52;102675;1260;96591;-67
2023/02/27 00:38:58;;;;;;;10.50;5.40;;;;;;;0.20;71.66;100620.56;101812;1264;1005191;-68
2023/02/27 00:41:46;;;;;;;9.80;5.60;;;;;;;0.19;71.87;100619.85;102661;1261;109044;-67
2023/02/27 00:44:18;;;;;;;12.00;6.00;;;;;;;0.18;72.02;100619.81;101941;1263;1004034;-67
2023/02/27 00:47:06;;;;;;;11.20;5.40;;;;;;;0.16;72.29;100623.21;101856;1263;1003043;-69
2023/02/27 00:49:43;;;;;;;10.40;5.40;;;;;;;0.13;72.35;100622.48;102986;1259;96455;-68
2023/02/27 00:52:20;;;;;;;12.40;5.70;;;;;;;0.11;72.53;100627.92;102352;1255;1002524;-67
2023/02/27 00:54:58;;;;;;;10.40;5.90;;;;;;;0.10;72.71;100625.17;103129;1260;107061;-67
2023/02/27 00:57:28;;;;;;;10.00;5.30;;;;;;;0.09;72.90;100630.29;103534;1255;137997;-67
2023/02/27 00:59:59;;;;;;;9.70;5.50;;;;;;;0.08;73.08;100631.99;103130;1259;109637;-67
2023/02/27 01:02:46;;;;;;;10.00;4.90;;;;;;;0.08;73.18;100631.31;102251;1255;1002979;-67
2023/02/27 01:05:34;;;;;;;11.20;5.80;;;;;;;0.07;73.28;100635.56;103090;1257;110108;-67
2023/02/27 01:08:11;;;;;;;9.70;5.30;;;;;;;0.05;73.37;100633.81;103036;1259;107796;-67
2023/02/27 01:10:49;;;;;;;10.00;5.60;;;;;;;0.03;73.52;100630.03;102967;1257;138186;-67
2023/02/27 01:13:37;;;;;;;9.20;5.30;;;;;;;0.03;73.66;100630.20;102947;1256;108033;-67
2023/02/27 01:16:25;;;;;;;12.00;5.40;;;;;;;0.02;73.77;100631.89;103030;1257;137916;-67
2023/02/27 01:19:11;;;;;;;10.90;5.50;;;;;;;0.00;73.88;100634.60;103113;1254;110571;-67
2023/02/27 01:21:52;;;;;;;13.80;5.90;;;;;;;-0.00;73.96;100632.70;103106;1254;138212;-67
2023/02/27 01:24:29;;;;;;;9.90;5.00;;;;;;;0.00;74.07;100633.90;103161;1254;96380;-67
2023/02/27 01:27:11;;;;;;;10.50;5.30;;;;;;;-0.01;74.01;100634.91;103136;1254;137887;-67
2023/02/27 01:29:57;;;;;;;;;;;;;;;-0.02;74.14;100634.04;102419;1257;1002643;-67
2023/02/27 01:32:45;;;;;;;9.10;4.60;;;;;;;-0.02;74.31;100631.98;103070;1257;124999;-67
2023/02/27 01:35:17;;;;;;;11.70;5.40;;;;;;;-0.02;74.44;100634.37;102250;1255;1003070;-67
2023/02/27 01:37:56;;;;;;;9.10;5.20;;;;;;;-0.02;74.57;100634.21;103066;1255;96461;-67
2023/02/27 01:40:44;;;;;;;8.60;5.10;;;;;;;-0.01;74.64;100636.78;102260;1254;1003050;-67
2023/02/27 01:43:32;;;;;;;11.90;5.60;;;;;;;-0.03;74.88;100637.27;102389;1257;1003261;-67
2023/02/27 01:46:09;;;;;;;9.90;5.40;;;;;;;-0.03;75.07;100641.04;103112;1254;138668;-67
2023/02/27 01:48:53;;;;;;;11.10;5.60;;;;;;;-0.02;75.24;100643.27;103182;1254;107895;-67
2023/02/27 01:51:45;;;;;;;9.30;4.70;;;;;;;-0.02;75.17;100639.33;103080;1254;138222;-67
2023/02/27 01:54:35;;;;;;;11.40;5.20;;;;;;;-0.06;75.11;100642.52;103194;1253;107457;-67
2023/02/27 01:57:07;;;;;;;8.20;5.00;;;;;;;-0.05;75.29;100648.34;102372;1254;1003290;-67
2023/02/27 01:59:35;;;;;;;8.70;5.00;;;;;;;-0.06;75.42;100646.45;103240;1254;108891;-67
2023/02/27 02:02:28;;;;;;;8.30;4.70;;;;;;;-0.06;75.57;100649.35;102407;1254;1002850;-68
2023/02/27 02:05:13;;;;;;;9.30;5.40;;;;;;;-0.08;75.72;100651.04;103282;1255;96992;-67
2023/02/27 02:08:01;;;;;;;7.90;4.40;;;;;;;-0.08;75.77;100652.73;103243;1257;108802;-67
2023/02/27 02:10:51;;;;;;;8.00;4.50;;;;;;;-0.09;75.96;100653.58;103155;1254;138069;-67
2023/02/27 02:13:41;;;;;;;9.20;4.60;;;;;;;-0.09;76.11;100652.72;103292;1254;110299;-69
2023/02/27 02:16:24;;;;;;;11.50;5.40;;;;;;;-0.10;76.19;100655.79;103147;1255;138477;-68
2023/02/27 02:19:03;;;;;;;9.20;5.10;;;;;;;-0.10;76.22;100657.50;103204;1257;96550;-67
2023/02/27 02:22:07;;;;;;;10.90;5.20;;;;;;;-0.12;76.24;100655.59;103091;1254;138341;-69
2023/02/27 02:25:17;;;;;;;9.90;4.50;;;;;;;-0.13;76.42;100653.02;103234;1257;96552;-68
2023/02/27 02:28:10;;;;;;;9.60;5.00;;;;;;;-0.14;76.51;100654.19;102743;1263;138306;-67
2023/02/27 02:31:37;;;;;;;9.40;5.40;;;;;;;-0.16;76.53;100657.39;102799;1264;107884;-67
2023/02/27 02:34:52;;;;;;;8.30;5.10;;;;;;;-0.19;76.77;100665.86;102709;1261;138003;-67
2023/02/27 02:38:18;;;;;;;10.50;5.90;;;;;;;-0.18;76.94;100673.58;102776;1259;107263;-67
2023/02/27 02:41:14;;;;;;;11.90;6.10;;;;;;;-0.18;77.22;100673.91;102761;1259;98281;-67
2023/02/27 02:44:12;;;;;;;9.20;5.70;;;;;;;-0.21;77.27;100675.58;102843;1262;112170;-68
2023/02/27 02:47:08;;;;;;;9.50;6.10;;;;;;;-0.22;77.40;100680.69;103000;1257;137874;-67
2023/02/27 02:54:33;;;;;;;9.20;6.10;;;;;;;-0.20;77.71;100683.45;102055;1259;1003515;-68
2023/02/27 02:57:27;;;;;;;11.70;6.50;;;;;;;-0.18;77.81;100688.10;102781;1258;138812;-67
2023/02/27 03:00:21;;;;;;;10.70;6.70;;;;;;;-0.16;77.99;100692.27;102784;1259;111836;-67
2023/02/27 03:03:10;;;;;;;10.60;6.30;;;;;;;-0.15;78.07;100695.69;104120;1259;139159;-67
2023/02/27 03:05:57;;;;;;;13.20;6.50;;;;;;;-0.12;78.16;100699.67;103078;1254;96325;-68
2023/02/27 03:08:43;;;;;;;11.60;6.20;;;;;;;-0.09;78.23;100703.33;103147;1257;107313;-67
2023/02/27 03:11:38;;;;;;;10.20;6.30;;;;;;;-0.08;78.12;100706.07;103140;1257;96423;-67
2023/02/27 03:14:31;;;;;;;10.20;7.10;;;;;;;-0.08;78.20;100709.15;103096;1257;110516;-68
2023/02/27 03:17:25;;;;;;;14.30;7.60;;;;;;;-0.09;78.19;100711.52;103203;1257;107580;-67
2023/02/27 03:20:20;;;;;;;13.00;7.50;;;;;;;-0.10;78.20;100717.14;103116;1255;96512;-68
2023/02/27 03:23:13;;;;;;;12.00;7.70;;;;;;;-0.13;78.29;100724.96;104012;1254;138516;-68
2023/02/27 03:25:45;;;;;;;;;;;;;;;-0.13;78.53;100725.30;102507;1254;1003543;-68
2023/02/27 03:28:36;;;;;;;11.00;7.10;;;;;;;-0.17;78.36;100726.60;103105;1255;124807;-68
2023/02/27 03:31:31;;;;;;;12.80;7.30;;;;;;;-0.20;78.37;100729.42;103214;1253;108134;-68
2023/02/27 03:34:10;;;;;;;12.30;8.00;;;;;;;-0.21;78.55;100735.03;102326;1257;1003191;-68
2023/02/27 03:36:47;;;;;;;9.90;7.40;;;;;;;-0.23;78.76;100735.52;103103;1254;107350;-68
2023/02/27 03:39:42;;;;;;;12.70;7.70;;;;;;;-0.25;78.67;100739.41;104308;1254;138213;-68
2023/02/27 03:42:19;;;;;;;11.40;7.90;;;;;;;-0.25;78.82;100740.42;102659;1255;1003683;-68
2023/02/27 03:45:15;;;;;;;11.60;7.10;;;;;;;-0.26;78.92;100738.19;103070;1257;138954;-68
2023/02/27 03:47:54;;;;;;;12.90;7.70;;;;;;;-0.26;78.92;100744.01;103239;1253;96476;-68
2023/02/27 03:50:41;;;;;;;12.00;7.80;;;;;;;-0.29;79.04;100743.95;102430;1255;1003534;-68
2023/02/27 03:53:17;;;;;;;12.80;7.60;;;;;;;-0.31;79.00;100747.69;103058;1253;138543;-68
2023/02/27 03:55:46;;;;;;;12.50;7.40;;;;;;;-0.32;79.00;100750.05;103290;1254;110098;-68
2023/02/27 03:58:17;;;;;;;11.20;7.70;;;;;;;-0.34;79.20;100754.98;102332;1253;1003072;-68
2023/02/27 04:00:56;;;;;;;13.60;7.80;;;;;;;-0.33;79.21;100753.29;103283;1257;98208;-68
2023/02/27 04:03:51;;;;;;;9.50;7.30;;;;;;;-0.33;79.12;100757.73;103123;1254;137928;-68
2023/02/27 04:09:47;;;;;;;11.10;6.70;;;;;;;-0.36;79.32;100761.55;102333;1257;1139582;-68
2023/02/27 04:12:36;;;;;;;11.00;7.10;;;;;;;-0.36;79.32;100762.28;103234;1254;107335;-68
2023/02/27 04:15:20;;;;;;;11.40;6.60;;;;;;;-0.35;79.30;100764.20;102997;1257;138295;-68
2023/02/27 04:18:25;;;;;;;9.60;6.30;;;;;;;-0.37;79.24;100766.70;101683;1254;1003078;-68
2023/02/27 04:21:08;;;;;;;9.30;6.50;;;;;;;-0.37;79.19;100768.38;102784;1255;1002584;-68
2023/02/27 04:23:47;;;;;;;9.10;6.10;;;;;;;-0.38;79.20;100771.44;103102;1254;107831;-68
2023/02/27 04:26:43;;;;;;;9.60;6.30;;;;;;;-0.35;79.06;100773.91;102373;1255;1002494;-68
2023/02/27 04:29:40;;;;;;;11.30;5.80;;;;;;;-0.33;78.81;100777.20;102312;1255;1002941;-68
2023/02/27 04:32:35;;;;;;;8.70;6.10;;;;;;;-0.33;78.77;100777.05;103071;1255;107199;-68
2023/02/27 04:35:17;;;;;;;10.70;6.00;;;;;;;-0.33;78.90;100778.75;102321;1255;1002990;-68
2023/02/27 04:37:54;;;;;;;7.30;6.00;;;;;;;-0.33;78.56;100779.09;102471;1254;1003127;-69
2023/02/27 04:40:46;;;;;;;8.70;6.10;;;;;;;-0.37;78.31;100781.21;103124;1257;138127;-68
2023/02/27 04:43:25;;;;;;;8.50;6.10;;;;;;;-0.37;78.25;100786.48;103199;1257;96342;-68
2023/02/27 04:45:58;;;;;;;9.20;6.00;;;;;;;-0.39;78.17;100788.86;103026;1257;137974;-68
2023/02/27 04:48:43;;;;;;;15.10;5.60;;;;;;;-0.39;78.08;100791.74;103137;1257;96520;-68
2023/02/27 04:51:36;;;;;;;8.10;4.90;;;;;;;-0.41;77.82;100794.45;102992;1254;138176;-69
2023/02/27 04:54:17;;;;;;;9.60;5.80;;;;;;;-0.42;77.81;100796.14;103151;1256;107468;-68
2023/02/27 04:57:01;;;;;;;8.70;5.40;;;;;;;-0.40;77.94;100794.80;103213;1254;97031;-68
2023/02/27 04:59:39;;;;;;;9.50;5.60;;;;;;;-0.40;77.93;100802.50;102315;1254;1003450;-68
2023/02/27 05:02:14;;;;;;;10.50;5.90;;;;;;;-0.40;77.84;100807.27;102359;1255;1002849;-68
2023/02/27 05:04:49;;;;;;;9.20;5.60;;;;;;;-0.40;77.91;100811.04;103059;1255;138330;-68
2023/02/27 05:07:26;;;;;;;10.00;5.50;;;;;;;-0.42;77.92;100815.27;103074;1257;107803;-69
2023/02/27 05:10:06;;;;;;;8.30;5.70;;;;;;;-0.43;77.92;100814.56;103141;1253;138658;-68
2023/02/27 05:12:58;;;;;;;10.50;5.80;;;;;;;-0.45;78.01;100817.77;103214;1256;107908;-69
2023/02/27 05:15:50;;;;;;;10.10;6.00;;;;;;;-0.45;78.01;100822.73;103112;1256;139082;-69
2023/02/27 05:18:29;;;;;;;9.70;5.70;;;;;;;-0.45;78.05;100826.31;102488;1257;1002767;-68
2023/02/27 05:21:18;;;;;;;10.40;5.40;;;;;;;-0.43;78.15;100829.94;103098;1256;138280;-69
2023/02/27 05:24:14;;;;;;;8.30;5.40;;;;;;;-0.43;78.13;100831.48;103079;1252;96598;-69
2023/02/27 05:27:10;;;;;;;7.80;5.00;;;;;;;-0.42;78.09;100841.25;103204;1257;107881;-68
2023/02/27 05:30:03;;;;;;;9.20;5.70;;;;;;;-0.40;78.13;100841.79;103131;1258;96437;-69
2023/02/27 05:32:57;;;;;;;8.30;5.60;;;;;;;-0.40;78.18;100845.55;103105;1257;110131;-70
2023/02/27 05:35:28;;;;;;;12.20;5.70;;;;;;;-0.40;78.22;100848.13;103190;1254;108604;-69
2023/02/27 05:38:05;;;;;;;7.70;5.20;;;;;;;-0.39;77.99;100848.48;102493;1256;1003035;-68
2023/02/27 05:40:47;;;;;;;9.00;5.50;;;;;;;-0.41;77.90;100854.75;103055;1254;138224;-70
2023/02/27 05:43:38;;;;;;;12.00;5.30;;;;;;;-0.45;77.74;100852.27;102461;1255;1003400;-66
2023/02/27 05:46:10;;;;;;;9.80;5.30;;;;;;;-0.47;77.83;100860.10;103132;1254;138327;-69
2023/02/27 05:49:01;;;;;;;9.10;5.30;;;;;;;-0.47;77.83;100864.38;103291;1256;108476;-67
2023/02/27 05:51:52;;;;;;;9.80;5.50;;;;;;;-0.48;77.56;100864.84;103363;1254;1002851;-70
2023/02/27 05:54:29;;;;;;;6.30;4.30;;;;;;;-0.47;77.28;100871.38;102643;1253;1003340;-69
2023/02/27 05:57:02;;;;;;;13.00;4.90;;;;;;;-0.46;77.22;100873.61;102454;1255;1002530;-73
2023/02/27 06:00:00;;;;;;;8.90;5.40;;;;;;;-0.45;77.33;100873.79;103116;1255;111202;-68
2023/02/27 06:02:37;;;;;;;9.00;3.90;;;;;;;-0.44;76.76;100877.23;103266;1259;107593;-69
2023/02/27 06:05:25;;;;;;;10.00;3.90;;;;;;;-0.46;75.68;100874.81;103191;1255;96316;-70
2023/02/27 06:08:13;;;;;;;7.60;2.70;;;;;;;-0.49;74.90;100873.73;103182;1254;108320;-68
2023/02/27 06:10:54;;;;;;;3.90;2.30;;;;;;;-0.49;73.91;100873.71;103084;1255;137968;-67
2023/02/27 06:13:42;;;;;;;5.30;2.00;;;;;;;-0.47;73.11;100879.23;102604;1255;1003121;-70
2023/02/27 06:16:29;;;;;;;3.60;2.30;;;;;;;-0.45;72.58;100883.19;102971;1255;138097;-71
2023/02/27 06:19:10;;;;;;;3.80;1.80;;;;;;;-0.42;71.91;100885.64;103178;1257;96451;-67
2023/02/27 06:21:58;;;;;;;4.80;1.80;;;;;;;-0.40;71.61;100887.07;101742;1254;1003490;-68
2023/02/27 06:24:46;;;;;;;3.80;1.40;;;;;;;-0.36;70.92;100889.05;103117;1255;96440;-68
2023/02/27 06:27:33;;;;;;;3.10;1.70;;;;;;;-0.32;70.41;100888.46;102996;1255;137960;-68
2023/02/27 06:30:22;;;;;;;2.30;1.40;;;;;;;-0.25;69.72;100887.91;102994;1255;109691;-68
2023/02/27 06:32:49;;;;;;;8.00;1.90;;;;;;;-0.18;69.55;100889.09;103093;1255;97005;-68
2023/02/27 06:35:19;;;;;;;2.30;1.50;;;;;;;-0.09;69.24;100897.15;102872;1260;137610;-68
2023/02/27 06:37:49;;;;;;;5.20;1.90;;;;;;;0.02;68.78;100905.09;102941;1260;96546;-68
2023/02/27 06:40:27;;;;;;;3.20;1.70;;;;;;;0.15;68.77;100905.70;102953;1255;137685;-69
2023/02/27 06:43:15;;;;;;;4.30;1.60;;;;;;;0.29;67.99;100906.66;102282;1260;1003234;-68
2023/02/27 06:45:56;;;;;;;3.50;1.40;;;;;;;0.41;67.51;100911.36;103072;1258;138119;-71
2023/02/27 06:48:34;;;;;;;6.00;1.70;;;;;;;0.54;66.91;100916.92;103077;1256;107263;-71
2023/02/27 06:51:05;;;;;;;2.60;1.40;;;;;;;0.70;66.46;100917.20;103024;1255;138311;-71
2023/02/27 06:53:37;;;;;;;4.40;1.40;;;;;;;0.87;66.03;100919.21;103455;1256;109930;-74
2023/02/27 06:56:09;;;;;;;2.90;1.80;;;;;;;1.08;65.95;100920.61;103287;1256;107775;-73
2023/02/27 06:58:57;;;;;;;5.30;1.60;;;;;;;1.35;65.32;100929.81;99213;1255;137279;-73
2023/02/27 07:01:28;;;;;;;3.30;1.50;;;;;;;1.59;64.61;100934.65;103341;1254;108026;-74
2023/02/27 07:04:02;;;;;;;4.30;1.70;;;;;;;1.83;64.31;100938.25;103165;1257;137037;-71
2023/02/27 07:06:43;;;;;;;3.70;1.50;;;;;;;2.11;63.34;100941.23;103270;1256;106971;-72
2023/02/27 07:09:31;;;;;;;2.40;1.20;;;;;;;3.16;62.46;100937.38;102440;1255;1003185;-79
2023/02/27 07:12:19;;;;;;;2.70;1.30;;;;;;;5.27;60.74;100937.35;102998;1255;108990;-73
2023/02/27 07:14:49;;;;;;;3.60;1.30;;;;;;;6.45;57.91;100931.33;103138;1255;107246;-73
2023/02/27 07:17:16;;;;;;;2.90;1.20;;;;;;;7.28;56.72;100929.59;103212;1254;137174;-73
2023/02/27 07:19:44;;;;;;;1.40;0.90;;;;;;;7.99;55.05;100927.73;103283;1254;107509;-73
2023/02/27 07:22:11;;;;;;;5.50;2.50;;;;;;;8.70;54.42;100925.32;103112;1254;137302;-74
2023/02/27 07:24:39;;;;;;;3.90;1.40;;;;;;;9.88;53.30;100926.38;103080;1257;109122;-75
2023/02/27 07:27:06;;;;;;;3.60;1.30;;;;;;;10.96;51.57;100919.64;102862;1255;137311;-76
2023/02/27 07:29:34;;;;;;;3.70;1.30;;;;;;;12.38;50.36;100916.16;103065;1256;96456;-74
2023/02/27 07:32:02;;;;;;;1.40;0.90;;;;;;;13.84;49.28;100910.64;103270;1256;108078;-74
2023/02/27 07:34:29;;;;;;;4.20;1.10;;;;;;;15.22;47.93;100906.49;103132;1258;137990;-74
2023/02/27 07:36:57;;;;;;;1.70;0.90;;;;;;;16.39;46.09;100900.40;103297;1257;109952;-75
2023/02/27 07:39:24;;;;;;;2.90;1.20;;;;;;;17.21;44.08;100901.27;103051;1258;137757;-74
2023/02/27 07:41:51;;;;;;;1.80;1.30;;;;;;;17.94;42.84;100896.52;103297;1258;96645;-76
2023/02/27 07:44:18;;;;;;;1.60;1.20;;;;;;;18.67;41.87;100894.34;103201;1256;107010;-73
2023/02/27 07:46:46;;;;;;;3.20;1.10;;;;;;;19.14;40.20;100893.06;103044;1255;137798;-77
2023/02/27 07:49:13;;;;;;;3.20;1.10;;;;;;;19.58;39.32;100889.48;103204;1258;110562;-78
2023/02/27 07:51:41;;;;;;;3.90;1.50;;;;;;;20.37;39.52;100887.48;103103;1256;137532;-77
2023/02/27 07:54:08;;;;;;;2.40;1.30;;;;;;;21.25;37.86;100889.60;103297;1256;96417;-76
2023/02/27 07:56:35;;;;;;;6.40;1.20;;;;;;;21.85;36.71;100887.65;103205;1254;109591;-77
2023/02/27 07:59:03;;;;;;;4.00;1.30;;;;;;;22.40;36.43;100885.08;103060;1257;137528;-76
2023/02/27 08:01:30;;;;;;;5.10;2.10;;;;;;;22.94;36.36;100886.29;103217;1254;109252;-79
2023/02/27 08:03:58;;;;;;;2.20;1.40;;;;;;;23.56;35.93;100890.34;103039;1255;137569;-80
2023/02/27 08:06:25;;;;;;;2.00;1.40;;;;;;;24.02;34.59;100892.25;103124;1260;96429;-79
2023/02/27 08:08:53;;;;;;;2.10;1.30;;;;;;;24.26;32.91;100890.80;103018;1255;106828;-78
2023/02/27 08:11:20;;;;;;;1.80;0.90;;;;;;;24.14;30.06;100886.77;103050;1256;137406;-77
2023/02/27 08:13:48;;;;;;;3.30;1.10;;;;;;;23.93;30.21;100891.21;103165;1256;109514;-77
2023/02/27 08:16:32;;;;;;;2.60;1.80;;;;;;;23.96;30.58;100890.44;102886;1259;137885;-79
2023/02/27 08:19:00;;;;;;;5.40;2.60;;;;;;;24.02;30.39;100893.04;102945;1257;96683;-81
2023/02/27 08:21:29;;;;;;;1.60;1.10;;;;;;;24.07;29.07;100899.89;103066;1258;137511;-80
2023/02/27 08:23:57;;;;;;;3.30;1.30;;;;;;;24.00;28.44;100911.13;103241;1258;96445;-80
2023/02/27 08:26:24;;;;;;;2.10;1.40;;;;;;;24.07;29.12;100914.31;103106;1256;110525;-79
2023/02/27 08:28:52;;;;;;;2.30;1.40;;;;;;;24.12;28.10;100911.80;103149;1255;138467;-79
2023/02/27 08:31:19;;;;;;;1.40;1.30;;;;;;;23.98;27.29;100912.45;103173;1257;96437;-78
2023/02/27 08:33:47;;;;;;;1.70;1.10;;;;;;;23.97;27.38;100917.71;102947;1254;137270;-84
2023/02/27 08:36:27;;;;;;;2.40;1.30;;;;;;;23.95;26.80;100917.71;103118;1257;96471;-80
2023/02/27 08:38:54;;;;;;;2.30;1.20;;;;;;;23.58;24.00;100921.23;103107;1255;109871;-80
2023/02/27 08:41:22;;;;;;;1.90;1.10;;;;;;;22.73;24.35;100922.73;102959;1254;137317;-74
2023/02/27 08:43:49;;;;;;;1.40;1.10;;;;;;;22.48;26.06;100927.20;103081;1254;96411;-76
2023/02/27 08:46:17;;;;;;;2.60;1.30;;;;;;;22.60;25.33;100926.15;103149;1259;137312;-83
2023/02/27 08:48:44;;;;;;;1.80;1.20;;;;;;;21.74;25.23;100934.94;103117;1256;96418;-77
2023/02/27 08:51:11;;;;;;;1.90;1.50;;;;;;;20.87;25.42;100929.88;103143;1258;137475;-80
2023/02/27 08:53:40;;;;;;;1.50;1.10;;;;;;;20.37;23.92;100932.36;103005;1255;107505;-82
2023/02/27 08:56:08;;;;;;;3.00;1.20;;;;;;;20.00;24.94;100940.80;103118;1257;96429;-80
2023/02/27 08:58:35;;;;;;;1.40;1.10;;;;;;;18.96;24.59;100945.00;103139;1256;137278;-84
2023/02/27 09:01:03;;;;;;;1.50;0.90;;;;;;;17.63;25.09;100963.14;103029;1254;96344;-78
2023/02/27 09:03:31;;;;;;;1.80;0.90;;;;;;;17.52;26.53;100960.90;103946;1254;137494;-83
2023/02/27 09:05:58;;;;;;;2.50;1.10;;;;;;;17.36;26.55;100963.61;102985;1254;106941;-77
2023/02/27 09:08:26;;;;;;;1.60;1.10;;;;;;;16.78;26.80;100967.81;103027;1257;96466;-78
2023/02/27 09:10:57;;;;;;;2.30;1.20;;;;;;;16.29;27.23;100976.63;103085;1256;137204;-78
2023/02/27 09:13:25;;;;;;;1.40;1.00;;;;;;;15.85;27.35;100980.31;103260;1259;96413;-82
2023/02/27 09:15:53;;;;;;;4.40;2.10;;;;;;;15.97;27.77;100980.53;103976;1255;138318;-79
2023/02/27 09:18:20;;;;;;;2.70;1.30;;;;;;;16.31;27.03;100980.26;102973;1257;107323;-77
2023/02/27 09:20:48;;;;;;;5.50;1.30;;;;;;;16.81;27.04;100984.33;103243;1255;96470;-78
2023/02/27 09:23:15;;;;;;;3.00;1.30;;;;;;;17.05;27.74;100984.80;103118;1255;137071;-79
2023/02/27 09:25:42;;;;;;;1.60;1.20;;;;;;;17.59;26.13;100987.79;102948;1257;96424;-78
2023/02/27 09:28:09;;;;;;;2.70;1.80;;;;;;;17.19;26.22;100993.61;102945;1254;137534;-75
2023/02/27 09:30:37;;;;;;;2.10;1.50;;;;;;;16.32;26.69;101000.56;103005;1254;107715;-79
2023/02/27 09:33:04;;;;;;;2.20;1.40;;;;;;;15.38;26.82;101003.96;102956;1255;137693;-76
2023/02/27 09:35:31;;;;;;;2.70;1.20;;;;;;;14.44;27.24;101009.44;103087;1254;107091;-76
2023/02/27 09:38:00;;;;;;;4.60;1.10;;;;;;;13.65;27.91;101021.77;103000;1255;96454;-79
2023/02/27 09:40:30;;;;;;;2.10;1.30;;;;;;;12.91;28.42;101022.63;102987;1256;137300;-78
2023/02/27 09:43:04;;;;;;;1.80;1.30;;;;;;;12.16;28.97;101027.86;103249;1257;109688;-80
2023/02/27 09:45:37;;;;;;;2.70;1.30;;;;;;;11.50;29.41;101033.99;103110;1258;138108;-80
2023/02/27 09:48:13;;;;;;;2.50;1.30;;;;;;;10.94;30.03;101039.44;104584;1255;107488;-81
2023/02/27 09:50:43;;;;;;;2.00;1.60;;;;;;;10.40;30.09;101048.31;103507;1258;96438;-80
2023/02/27 09:53:17;;;;;;;2.50;1.50;;;;;;;9.85;30.56;101054.81;102935;1255;137236;-80
2023/02/27 09:55:46;;;;;;;2.00;1.30;;;;;;;9.36;30.77;101057.13;103189;1254;110434;-78
2023/02/27 09:58:43;;;;;;;2.30;1.30;;;;;;;8.95;31.79;101062.20;102184;1257;1003178;-75
2023/02/27 10:01:14;;;;;;;;;;;;;;;8.70;32.37;101064.73;103283;1255;107338;-78
2023/02/27 10:04:01;;;;;;;2.50;1.60;;;;;;;8.30;32.69;101065.15;103774;1257;123992;-78
2023/02/27 10:06:44;;;;;;;3.30;1.30;;;;;;;7.74;33.06;101071.16;103096;1254;109558;-76
2023/02/27 10:09:25;;;;;;;7.70;1.70;;;;;;;7.31;33.56;101080.79;103062;1255;137678;-78
2023/02/27 10:12:04;;;;;;;2.60;1.50;;;;;;;7.00;34.18;101076.95;103205;1255;96483;-79
2023/02/27 10:14:50;;;;;;;4.30;1.70;;;;;;;6.73;34.76;101082.59;103237;1254;108040;-81
2023/02/27 10:17:24;;;;;;;2.60;1.40;;;;;;;6.51;34.77;101087.48;103151;1259;137005;-79
2023/02/27 10:19:57;;;;;;;3.80;1.40;;;;;;;6.34;35.31;101086.31;103242;1266;109042;-80
2023/02/27 10:22:30;;;;;;;3.90;1.70;;;;;;;6.20;35.49;101081.30;102890;1254;137115;-79
2023/02/27 10:25:01;;;;;;;2.60;1.50;;;;;;;5.99;35.71;101085.98;102363;1254;1003035;-78
2023/02/27 10:27:33;;;;;;;2.30;1.60;;;;;;;5.62;35.85;101086.95;103038;1257;137820;-79
2023/02/27 10:30:28;;;;;;;2.70;1.50;;;;;;;5.29;36.71;101089.48;102366;1254;1002654;-79
2023/02/27 10:33:16;;;;;;;2.80;1.80;;;;;;;5.15;37.18;101095.80;102309;1254;1002946;-79
2023/02/27 10:35:53;;;;;;;3.10;1.70;;;;;;;4.89;37.04;101099.66;102360;1254;1003667;-79
2023/02/27 10:38:28;;;;;;;3.80;1.80;;;;;;;4.69;37.46;101102.84;103129;1254;96430;-79
2023/02/27 10:41:02;;;;;;;4.30;1.70;;;;;;;4.57;37.77;101103.29;102950;1260;1002594;-80
2023/02/27 10:43:41;;;;;;;2.70;1.50;;;;;;;4.43;37.82;101103.19;102348;1255;1003312;-77
2023/02/27 10:46:31;;;;;;;3.30;1.40;;;;;;;4.28;38.12;101107.91;102991;1255;137251;-79
2023/02/27 10:49:20;;;;;;;2.60;1.60;;;;;;;4.16;38.29;101103.17;103098;1255;108525;-78
2023/02/27 10:52:04;;;;;;;7.70;4.10;;;;;;;4.09;38.58;101100.18;101490;1254;1003819;-79
2023/02/27 10:54:44;;;;;;;2.60;1.80;;;;;;;4.04;38.83;101099.12;103130;1258;107973;-79
2023/02/27 10:57:40;;;;;;;2.70;1.70;;;;;;;4.02;38.90;101101.00;103061;1255;137339;-80
2023/02/27 11:00:27;;;;;;;1.90;1.60;;;;;;;4.00;38.99;101105.64;103158;1257;111343;-77
2023/02/27 11:02:57;;;;;;;3.30;1.70;;;;;;;3.94;38.99;101110.23;104538;1255;107811;-80
2023/02/27 11:05:32;;;;;;;2.90;2.00;;;;;;;3.87;39.25;101104.14;102568;1254;1002992;-80
2023/02/27 11:08:25;;;;;;;2.70;1.50;;;;;;;3.78;39.16;101111.29;103185;1258;108338;-80
2023/02/27 11:11:00;;;;;;;3.60;1.70;;;;;;;3.72;39.45;101112.42;103181;1257;137104;-79
2023/02/27 11:13:32;;;;;;;1.90;1.50;;;;;;;3.66;39.56;101119.08;103135;1254;111135;-77
2023/02/27 11:16:15;;;;;;;2.90;1.70;;;;;;;3.65;39.61;101117.70;104386;1256;137196;-81
2023/02/27 11:19:23;;;;;;;5.20;2.30;;;;;;;3.69;39.62;101112.05;103882;1260;95393;-76
2023/02/27 11:22:08;;;;;;;2.70;1.70;;;;;;;3.68;39.60;101117.54;103273;1260;136912;-74
2023/02/27 11:25:18;;;;;;;3.60;1.80;;;;;;;3.62;39.82;101119.91;103469;1260;1002971;-77
2023/02/27 11:28:15;;;;;;;2.10;1.50;;;;;;;3.53;39.60;101115.85;102968;1254;1003706;-76
2023/02/27 11:30:44;;;;;;;3.00;1.80;;;;;;;3.43;39.51;101112.66;103760;1254;1002182;-76
2023/02/27 11:33:20;;;;;;;3.50;1.70;;;;;;;3.31;39.72;101125.58;104114;1258;137873;-78
2023/02/27 11:35:59;;;;;;;4.20;1.80;;;;;;;3.18;39.87;101128.17;104573;1254;108871;-82
2023/02/27 11:38:52;;;;;;;4.10;1.60;;;;;;;3.15;40.05;101133.64;104603;1256;94917;-80
2023/02/27 11:41:34;;;;;;;4.20;1.80;;;;;;;3.16;40.13;101125.57;103189;1257;1003059;-82
2023/02/27 11:44:18;;;;;;;3.10;1.80;;;;;;;3.19;40.15;101126.81;102680;1256;1003125;-83
2023/02/27 11:47:31;;;;;;;4.30;2.00;;;;;;;3.23;40.57;101124.62;103278;1266;137348;-82
2023/02/27 11:50:39;;;;;;;4.90;1.60;;;;;;;3.26;40.44;101125.36;104203;1255;106145;-77
2023/02/27 11:53:25;;;;;;;4.40;1.90;;;;;;;3.28;40.58;101128.30;103585;1254;137302;-76
2023/02/27 11:55:57;;;;;;;3.60;1.60;;;;;;;3.29;40.64;101124.02;103270;1258;110019;-74
2023/02/27 11:58:30;;;;;;;1.50;1.40;;;;;;;3.28;41.04;101124.17;103069;1254;137078;-78
2023/02/27 12:01:25;;;;;;;6.50;1.60;;;;;;;3.33;40.75;101121.65;103137;1268;96445;-75
2023/02/27 12:03:59;;;;;;;4.50;2.00;;;;;;;3.33;40.96;101123.20;102747;1257;1002661;-77
2023/02/27 12:06:31;;;;;;;1.90;1.50;;;;;;;3.34;40.80;101126.13;103888;1254;94505;-76
2023/02/27 12:09:34;;;;;;;2.60;1.60;;;;;;;3.27;40.68;101126.06;103164;1258;138304;-77
2023/02/27 12:12:28;;;;;;;2.20;1.70;;;;;;;3.22;40.79;101121.17;103080;1257;109157;-76
2023/02/27 12:15:05;;;;;;;3.10;1.50;;;;;;;3.18;40.77;101124.23;103909;1259;96473;-75
2023/02/27 12:17:39;;;;;;;5.90;2.10;;;;;;;3.16;41.14;101129.52;103819;1254;108380;-75
2023/02/27 12:20:35;;;;;;;3.20;2.00;;;;;;;3.12;40.87;101131.55;103596;1254;96491;-76